Time;durP1;ratioP1;P1;durP2;ratioP2;P2;SDS_P1;SDS_P2;PMS_P1;PMS_P2;Temp;Humidity;BMP_temperature;BMP_pressure;BME280_temperature;BME280_humidity;BME280_pressure;Samples;Min_cycle;Max_cycle;Signal;HPM_P1;HPM_P2
2024/03/18 00:01:56;;;;;;;6.38;3.28;;;;;;;;;;4978576;28;20079;-66
2024/03/18 00:04:23;;;;;;;9.32;4.15;;;;;;;;;;5054288;28;20061;-65
2024/03/18 00:06:50;;;;;;;7.70;3.85;;;;;;;;;;5055946;28;20057;-66
2024/03/18 00:09:17;;;;;;;18.05;7.97;;;;;;;;;;5052574;28;20131;-67
2024/03/18 00:11:45;;;;;;;13.20;6.00;;;;;;;;;;5057034;28;20052;-66
2024/03/18 00:14:12;;;;;;;8.25;3.88;;;;;;;;;;5037226;28;20068;-65
2024/03/18 00:16:38;;;;;;;10.00;5.10;;;;;;;;;;5041736;28;20062;-66
2024/03/18 00:19:05;;;;;;;9.15;4.32;;;;;;;;;;5043106;28;20079;-66
2024/03/18 00:21:32;;;;;;;7.75;3.53;;;;;;;;;;5042610;28;20431;-66
2024/03/18 00:24:01;;;;;;;8.35;3.80;;;;;;;;;;5028802;28;20056;-67
2024/03/18 00:26:28;;;;;;;8.02;3.88;;;;;;;;;;5024294;28;20060;-65
2024/03/18 00:28:56;;;;;;;8.60;4.10;;;;;;;;;;5042018;28;20057;-65
2024/03/18 00:31:26;;;;;;;8.55;4.20;;;;;;;;;;5038544;28;20121;-66
2024/03/18 00:33:52;;;;;;;7.75;3.65;;;;;;;;;;5043736;28;20068;-65
2024/03/18 00:36:21;;;;;;;10.30;4.35;;;;;;;;;;5032465;28;20279;-66
2024/03/18 00:38:47;;;;;;;;;;;;;;;;;;5045091;28;20076;-65
2024/03/18 00:44:00;;;;;;;10.38;3.83;;;;;;;;;;5039196;28;20065;-66
2024/03/18 00:46:27;;;;;;;;;;;;;;;;;;5031048;28;20060;-65
2024/03/18 00:48:54;;;;;;;11.93;4.13;;;;;;;;;;5056732;28;19986;-65
2024/03/18 00:51:21;;;;;;;8.10;3.95;;;;;;;;;;5035583;28;20331;-65
2024/03/18 00:53:47;;;;;;;15.63;4.43;;;;;;;;;;5033179;28;21073;-66
2024/03/18 00:56:14;;;;;;;10.32;4.10;;;;;;;;;;5041602;28;20153;-65
2024/03/18 00:58:41;;;;;;;10.82;4.28;;;;;;;;;;5040811;28;20057;-64
2024/03/18 01:01:09;;;;;;;9.20;4.80;;;;;;;;;;5042251;28;20328;-66
2024/03/18 01:03:36;;;;;;;8.88;4.30;;;;;;;;;;5042634;28;20100;-64
2024/03/18 01:06:03;;;;;;;10.80;4.60;;;;;;;;;;4995370;28;20063;-65
2024/03/18 01:08:30;;;;;;;10.70;5.07;;;;;;;;;;5041504;28;20168;-65
2024/03/18 01:11:00;;;;;;;10.02;4.82;;;;;;;;;;5044357;28;20052;-63
2024/03/18 01:13:31;;;;;;;10.20;5.07;;;;;;;;;;5038195;28;20060;-65
2024/03/18 01:15:58;;;;;;;9.93;4.97;;;;;;;;;;5034499;28;20052;-65
2024/03/18 01:18:27;;;;;;;11.90;5.38;;;;;;;;;;5058511;28;20139;-65
2024/03/18 01:20:54;;;;;;;8.80;4.28;;;;;;;;;;5042555;28;20053;-64
2024/03/18 01:23:20;;;;;;;11.70;4.97;;;;;;;;;;5035965;28;20147;-65
2024/03/18 01:25:47;;;;;;;11.80;4.45;;;;;;;;;;5032558;28;20056;-64
2024/03/18 01:28:14;;;;;;;9.13;4.55;;;;;;;;;;5041133;28;20062;-65
2024/03/18 01:30:41;;;;;;;12.13;4.45;;;;;;;;;;5042645;28;20057;-64
2024/03/18 01:33:08;;;;;;;9.80;4.50;;;;;;;;;;5036263;28;20060;-66
2024/03/18 01:35:36;;;;;;;8.73;4.32;;;;;;;;;;5032161;28;20052;-64
2024/03/18 01:38:05;;;;;;;7.88;4.43;;;;;;;;;;5042766;28;20053;-64
2024/03/18 01:40:33;;;;;;;9.52;4.95;;;;;;;;;;5042668;28;20063;-65
2024/03/18 01:43:00;;;;;;;9.73;4.60;;;;;;;;;;5043701;28;20205;-64
2024/03/18 01:45:27;;;;;;;10.57;4.90;;;;;;;;;;5035098;28;20855;-66
2024/03/18 01:47:54;;;;;;;8.38;4.50;;;;;;;;;;5042570;28;20141;-64
2024/03/18 01:50:22;;;;;;;10.20;4.43;;;;;;;;;;5042685;28;20785;-64
2024/03/18 01:52:50;;;;;;;8.05;4.20;;;;;;;;;;5042959;28;20056;-65
2024/03/18 01:55:19;;;;;;;11.85;5.00;;;;;;;;;;5031631;28;20994;-65
2024/03/18 01:57:47;;;;;;;13.93;4.82;;;;;;;;;;5044219;28;20061;-64
2024/03/18 02:00:23;;;;;;;12.32;5.05;;;;;;;;;;5039734;28;20156;-64
2024/03/18 02:02:49;;;;;;;11.15;5.32;;;;;;;;;;5042766;28;20088;-66
2024/03/18 02:05:16;;;;;;;10.02;4.93;;;;;;;;;;5021131;28;20110;-65
2024/03/18 02:07:44;;;;;;;11.30;4.97;;;;;;;;;;5041342;28;20081;-64
2024/03/18 02:10:14;;;;;;;11.02;5.78;;;;;;;;;;5046351;28;20060;-66
2024/03/18 02:12:41;;;;;;;10.88;5.28;;;;;;;;;;5043336;28;20067;-65
2024/03/18 02:15:10;;;;;;;10.80;5.20;;;;;;;;;;5033451;28;20148;-65
2024/03/18 02:17:37;;;;;;;11.75;5.70;;;;;;;;;;5041611;28;20898;-65
2024/03/18 02:20:05;;;;;;;15.18;5.97;;;;;;;;;;5042626;28;20180;-64
2024/03/18 02:22:34;;;;;;;11.15;5.40;;;;;;;;;;5041270;28;20057;-65
2024/03/18 02:25:04;;;;;;;13.80;6.30;;;;;;;;;;5028693;28;20060;-64
2024/03/18 02:27:30;;;;;;;13.63;5.60;;;;;;;;;;5052992;28;20070;-64
2024/03/18 02:30:00;;;;;;;12.23;6.00;;;;;;;;;;5045367;28;20061;-64
2024/03/18 02:32:27;;;;;;;13.25;6.47;;;;;;;;;;5038616;28;20090;-64
2024/03/18 02:34:54;;;;;;;12.10;6.47;;;;;;;;;;5029094;28;20053;-65
2024/03/18 02:37:21;;;;;;;15.85;7.05;;;;;;;;;;5033231;28;20063;-64
2024/03/18 02:39:49;;;;;;;14.23;6.80;;;;;;;;;;5040281;28;20057;-64
2024/03/18 02:42:16;;;;;;;14.30;7.05;;;;;;;;;;5041171;28;20090;-65
2024/03/18 02:44:42;;;;;;;17.58;6.85;;;;;;;;;;5037552;28;20049;-65
2024/03/18 02:47:11;;;;;;;19.95;7.55;;;;;;;;;;5038183;28;20067;-64
2024/03/18 02:49:39;;;;;;;14.80;7.15;;;;;;;;;;5041568;28;20060;-65
2024/03/18 02:52:06;;;;;;;15.63;7.03;;;;;;;;;;5042221;28;20052;-64
2024/03/18 02:54:32;;;;;;;14.48;7.05;;;;;;;;;;5039507;28;20064;-63
2024/03/18 02:57:03;;;;;;;13.27;6.80;;;;;;;;;;5038618;28;20056;-64
2024/03/18 02:59:29;;;;;;;13.45;6.57;;;;;;;;;;5040032;28;20210;-64
2024/03/18 03:01:56;;;;;;;15.25;7.55;;;;;;;;;;5045104;28;20117;-63
2024/03/18 03:04:23;;;;;;;16.23;6.88;;;;;;;;;;5011513;28;20059;-64
2024/03/18 03:06:49;;;;;;;13.82;7.07;;;;;;;;;;5040256;28;20056;-63
2024/03/18 03:09:16;;;;;;;15.68;7.82;;;;;;;;;;5042747;28;21043;-64
2024/03/18 03:11:47;;;;;;;13.25;6.57;;;;;;;;;;5039563;28;20641;-65
2024/03/18 03:14:15;;;;;;;17.60;6.75;;;;;;;;;;5035365;28;20507;-64
2024/03/18 03:16:42;;;;;;;13.70;6.80;;;;;;;;;;5041507;28;20110;-64
2024/03/18 03:19:09;;;;;;;14.80;6.80;;;;;;;;;;5041304;28;20057;-63
2024/03/18 03:21:37;;;;;;;14.27;6.83;;;;;;;;;;5041361;28;20089;-63
2024/03/18 03:24:05;;;;;;;15.32;7.53;;;;;;;;;;5026586;28;20334;-63
2024/03/18 03:26:32;;;;;;;12.97;6.80;;;;;;;;;;5042011;28;20138;-65
2024/03/18 03:28:59;;;;;;;14.48;7.18;;;;;;;;;;5040832;28;20080;-64
2024/03/18 03:31:29;;;;;;;12.30;6.15;;;;;;;;;;5041935;28;20063;-63
2024/03/18 03:33:56;;;;;;;14.65;6.93;;;;;;;;;;5016846;28;20107;-64
2024/03/18 03:36:23;;;;;;;16.02;7.05;;;;;;;;;;5027575;28;20088;-64
2024/03/18 03:38:50;;;;;;;14.73;6.72;;;;;;;;;;5042156;28;20065;-64
2024/03/18 03:41:16;;;;;;;15.43;6.95;;;;;;;;;;5040346;28;20061;-63
2024/03/18 03:43:43;;;;;;;17.25;7.07;;;;;;;;;;4996383;28;20236;-64
2024/03/18 03:46:10;;;;;;;12.70;6.18;;;;;;;;;;5048226;28;22064;-63
2024/03/18 03:48:39;;;;;;;16.58;6.75;;;;;;;;;;5043756;28;20064;-63
2024/03/18 03:51:06;;;;;;;;;;;;;;;;;;5046923;28;20075;-63
2024/03/18 03:53:33;;;;;;;14.37;6.53;;;;;;;;;;5054039;28;19921;-62
2024/03/18 03:56:00;;;;;;;14.30;6.55;;;;;;;;;;5037421;28;20573;-63
2024/03/18 03:58:31;;;;;;;10.85;5.95;;;;;;;;;;5063580;28;20052;-64
2024/03/18 04:00:58;;;;;;;14.02;7.63;;;;;;;;;;5044508;28;20086;-64
2024/03/18 04:03:28;;;;;;;13.93;6.75;;;;;;;;;;5057484;28;20047;-64
2024/03/18 04:05:56;;;;;;;11.60;6.20;;;;;;;;;;5036026;28;20139;-64
2024/03/18 04:08:26;;;;;;;14.50;6.78;;;;;;;;;;5044110;28;20097;-63
2024/03/18 04:10:53;;;;;;;13.82;6.95;;;;;;;;;;5043493;28;20106;-62
2024/03/18 04:13:19;;;;;;;18.17;7.13;;;;;;;;;;5045376;28;20056;-64
2024/03/18 04:15:47;;;;;;;13.70;6.18;;;;;;;;;;5038186;28;20161;-64
2024/03/18 04:18:13;;;;;;;11.55;6.47;;;;;;;;;;5042222;28;20056;-65
2024/03/18 04:20:40;;;;;;;14.23;6.22;;;;;;;;;;5059140;28;20107;-64
2024/03/18 04:23:08;;;;;;;12.75;6.47;;;;;;;;;;5045980;28;20067;-64
2024/03/18 04:25:35;;;;;;;13.02;6.72;;;;;;;;;;5053322;28;20048;-63
2024/03/18 04:28:06;;;;;;;12.25;6.10;;;;;;;;;;5038625;28;20076;-63
2024/03/18 04:30:34;;;;;;;13.27;6.95;;;;;;;;;;5056670;28;20060;-64
2024/03/18 04:33:01;;;;;;;15.60;7.00;;;;;;;;;;5046037;28;20053;-65
2024/03/18 04:35:27;;;;;;;15.90;7.10;;;;;;;;;;5039863;28;20060;-63
2024/03/18 04:37:55;;;;;;;15.80;6.85;;;;;;;;;;5039617;28;20087;-64
2024/03/18 04:40:27;;;;;;;14.57;6.97;;;;;;;;;;5042225;28;20053;-63
2024/03/18 04:42:56;;;;;;;15.35;7.65;;;;;;;;;;5042832;28;20152;-64
2024/03/18 04:45:26;;;;;;;13.95;6.20;;;;;;;;;;5044298;28;20061;-63
2024/03/18 04:47:54;;;;;;;13.55;6.95;;;;;;;;;;5038991;28;20084;-64
2024/03/18 04:50:22;;;;;;;;;;;;;;;;;;5045654;28;20053;-63
2024/03/18 04:52:49;;;;;;;12.57;6.75;;;;;;;;;;5045515;28;19924;-65
2024/03/18 04:55:19;;;;;;;15.02;7.15;;;;;;;;;;5039355;28;20053;-64
2024/03/18 04:57:51;;;;;;;15.90;7.70;;;;;;;;;;5038758;28;20052;-64
2024/03/18 05:00:20;;;;;;;16.95;7.30;;;;;;;;;;5042190;28;20060;-63
2024/03/18 05:02:47;;;;;;;14.15;7.55;;;;;;;;;;5043104;28;20052;-63
2024/03/18 05:05:17;;;;;;;17.92;8.98;;;;;;;;;;5019921;28;20052;-63
2024/03/18 05:07:44;;;;;;;17.70;7.85;;;;;;;;;;5038806;28;20061;-64
2024/03/18 05:10:16;;;;;;;19.90;8.18;;;;;;;;;;5040194;28;20078;-64
2024/03/18 05:12:43;;;;;;;18.10;7.75;;;;;;;;;;5043841;28;20139;-64
2024/03/18 05:15:14;;;;;;;15.75;8.00;;;;;;;;;;5040431;28;20060;-64
2024/03/18 05:17:41;;;;;;;16.77;7.30;;;;;;;;;;5042227;28;20167;-64
2024/03/18 05:20:11;;;;;;;16.45;7.95;;;;;;;;;;5041523;28;20044;-63
2024/03/18 05:22:38;;;;;;;14.48;7.03;;;;;;;;;;5043467;28;20060;-62
2024/03/18 05:25:09;;;;;;;19.75;7.95;;;;;;;;;;5032365;28;20059;-64
2024/03/18 05:27:36;;;;;;;15.32;7.90;;;;;;;;;;5045316;28;20056;-63
2024/03/18 05:30:06;;;;;;;15.68;7.22;;;;;;;;;;5035801;28;20064;-63
2024/03/18 05:32:35;;;;;;;15.90;7.10;;;;;;;;;;5043586;28;20049;-63
2024/03/18 05:35:03;;;;;;;16.13;7.75;;;;;;;;;;5028956;28;20056;-65
2024/03/18 05:37:30;;;;;;;16.98;7.38;;;;;;;;;;5043579;28;20071;-64
2024/03/18 05:39:57;;;;;;;14.98;7.13;;;;;;;;;;5036547;28;20053;-63
2024/03/18 05:42:26;;;;;;;17.02;8.40;;;;;;;;;;5042793;28;20051;-64
2024/03/18 05:44:55;;;;;;;17.92;7.55;;;;;;;;;;5037437;28;20120;-64
2024/03/18 05:47:22;;;;;;;17.27;7.50;;;;;;;;;;5039361;28;20053;-64
2024/03/18 05:49:50;;;;;;;15.85;7.22;;;;;;;;;;5038414;28;20101;-65
2024/03/18 05:52:17;;;;;;;18.52;8.32;;;;;;;;;;5057709;28;20057;-64
2024/03/18 05:54:46;;;;;;;23.17;8.30;;;;;;;;;;5042206;28;20064;-63
2024/03/18 05:57:13;;;;;;;18.23;7.80;;;;;;;;;;5041860;28;20114;-64
2024/03/18 05:59:45;;;;;;;18.15;7.72;;;;;;;;;;5038717;28;20063;-64
2024/03/18 06:02:12;;;;;;;18.45;8.20;;;;;;;;;;5038411;28;20558;-64
2024/03/18 06:04:42;;;;;;;19.15;8.57;;;;;;;;;;4964337;28;21121;-64
2024/03/18 06:07:11;;;;;;;19.63;8.35;;;;;;;;;;5000955;28;20084;-63
2024/03/18 06:09:38;;;;;;;19.63;8.73;;;;;;;;;;5040448;28;20074;-64
2024/03/18 06:12:06;;;;;;;18.70;8.68;;;;;;;;;;5032349;28;20048;-64
2024/03/18 06:14:33;;;;;;;;;;;;;;;;;;5010615;28;20080;-66
2024/03/18 06:17:01;;;;;;;20.30;7.82;;;;;;;;;;5050921;28;19959;-66
2024/03/18 06:19:33;;;;;;;17.25;7.68;;;;;;;;;;5039168;28;20052;-64
2024/03/18 06:22:05;;;;;;;44.20;15.73;;;;;;;;;;5032409;28;20059;-66
2024/03/18 06:27:15;;;;;;;24.15;10.60;;;;;;;;;;5035943;28;20057;-65
2024/03/18 06:29:44;;;;;;;29.58;12.88;;;;;;;;;;5053530;28;20178;-65
2024/03/18 06:32:14;;;;;;;25.08;10.82;;;;;;;;;;5037714;28;20115;-63
2024/03/18 06:34:43;;;;;;;21.02;9.02;;;;;;;;;;5028148;28;20118;-64
2024/03/18 06:37:10;;;;;;;24.77;10.60;;;;;;;;;;5038275;28;20052;-65
2024/03/18 06:39:38;;;;;;;21.60;9.00;;;;;;;;;;5039936;28;20059;-64
2024/03/18 06:42:05;;;;;;;21.23;8.88;;;;;;;;;;5034726;28;20175;-64
2024/03/18 06:44:34;;;;;;;21.75;9.27;;;;;;;;;;5025409;28;20094;-65
2024/03/18 06:47:01;;;;;;;16.40;7.60;;;;;;;;;;5042464;28;20157;-64
2024/03/18 06:49:28;;;;;;;18.38;8.43;;;;;;;;;;5040529;28;20053;-64
2024/03/18 06:51:55;;;;;;;23.15;9.20;;;;;;;;;;5034289;28;20052;-64
2024/03/18 06:54:22;;;;;;;21.75;8.30;;;;;;;;;;5029709;28;20221;-64
2024/03/18 06:56:50;;;;;;;17.92;8.88;;;;;;;;;;5053090;28;20060;-64
2024/03/18 06:59:17;;;;;;;22.15;8.43;;;;;;;;;;5041224;28;20056;-64
2024/03/18 07:01:44;;;;;;;21.13;8.27;;;;;;;;;;5038402;28;20115;-65
2024/03/18 07:04:11;;;;;;;23.23;9.02;;;;;;;;;;5022057;28;20064;-65
2024/03/18 07:06:38;;;;;;;27.67;11.52;;;;;;;;;;5042365;28;20087;-65
2024/03/18 07:09:07;;;;;;;30.45;13.02;;;;;;;;;;5053402;28;20061;-64
2024/03/18 07:11:36;;;;;;;46.10;18.58;;;;;;;;;;5040926;28;20064;-64
2024/03/18 07:14:08;;;;;;;24.85;12.75;;;;;;;;;;5029867;28;20053;-64
2024/03/18 07:16:35;;;;;;;23.77;9.73;;;;;;;;;;5042345;28;20049;-64
2024/03/18 07:19:03;;;;;;;23.13;10.10;;;;;;;;;;5055275;28;20049;-65
2024/03/18 07:21:30;;;;;;;21.90;8.80;;;;;;;;;;5042167;28;20052;-64
2024/03/18 07:23:58;;;;;;;22.35;8.68;;;;;;;;;;5025823;28;20075;-64
2024/03/18 07:26:25;;;;;;;27.05;9.27;;;;;;;;;;5041847;28;20063;-65
2024/03/18 07:28:51;;;;;;;22.77;9.43;;;;;;;;;;5044175;28;20079;-64
2024/03/18 07:31:20;;;;;;;20.67;9.52;;;;;;;;;;5042636;28;20099;-64
2024/03/18 07:33:46;;;;;;;;;;;;;;;;;;5041697;28;20060;-64
2024/03/18 07:36:13;;;;;;;21.70;8.85;;;;;;;;;;5057521;28;19940;-63
2024/03/18 07:38:40;;;;;;;22.05;9.57;;;;;;;;;;5042425;28;20457;-64
2024/03/18 07:41:07;;;;;;;30.08;10.60;;;;;;;;;;5045564;28;20044;-64
2024/03/18 07:43:34;;;;;;;28.48;11.98;;;;;;;;;;5042513;28;20054;-64
2024/03/18 07:46:00;;;;;;;31.52;12.38;;;;;;;;;;5026288;28;20049;-64
2024/03/18 07:48:29;;;;;;;20.17;9.82;;;;;;;;;;5027977;28;20044;-65
2024/03/18 07:50:56;;;;;;;24.02;8.18;;;;;;;;;;5044109;28;20076;-64
2024/03/18 07:53:23;;;;;;;21.80;8.98;;;;;;;;;;5043547;28;20061;-64
2024/03/18 07:55:59;;;;;;;22.20;9.00;;;;;;;;;;5011337;28;20048;-64
2024/03/18 07:58:26;;;;;;;23.25;9.30;;;;;;;;;;5044334;28;20068;-64
2024/03/18 08:00:55;;;;;;;24.17;8.63;;;;;;;;;;5044267;28;20052;-64
2024/03/18 08:03:22;;;;;;;20.13;8.45;;;;;;;;;;5045173;28;20072;-64
2024/03/18 08:05:53;;;;;;;21.65;8.88;;;;;;;;;;5032802;28;20063;-65
2024/03/18 08:08:20;;;;;;;20.13;7.82;;;;;;;;;;5042171;28;20076;-64
2024/03/18 08:10:47;;;;;;;21.77;9.60;;;;;;;;;;5043811;28;20178;-64
2024/03/18 08:13:20;;;;;;;21.17;8.18;;;;;;;;;;5041515;28;20154;-64
2024/03/18 08:15:49;;;;;;;25.15;9.20;;;;;;;;;;5033828;28;20183;-64
2024/03/18 08:18:16;;;;;;;24.80;8.88;;;;;;;;;;5038217;28;20057;-65
2024/03/18 08:20:42;;;;;;;24.00;8.90;;;;;;;;;;5044141;28;20053;-63
2024/03/18 08:23:10;;;;;;;26.52;9.75;;;;;;;;;;5043662;28;20064;-65
2024/03/18 08:25:37;;;;;;;19.48;8.63;;;;;;;;;;5032411;28;20059;-64
2024/03/18 08:28:04;;;;;;;25.73;11.40;;;;;;;;;;5036744;28;20133;-64
2024/03/18 08:30:31;;;;;;;23.58;9.95;;;;;;;;;;5045886;28;20052;-64
2024/03/18 08:33:01;;;;;;;22.80;9.52;;;;;;;;;;5056979;28;20053;-64
2024/03/18 08:35:28;;;;;;;19.65;8.23;;;;;;;;;;5014942;28;20091;-64
2024/03/18 08:38:04;;;;;;;20.88;9.07;;;;;;;;;;5038709;28;20139;-65
2024/03/18 08:40:33;;;;;;;20.48;8.55;;;;;;;;;;5058236;28;20062;-64
2024/03/18 08:43:03;;;;;;;21.25;9.25;;;;;;;;;;5043325;28;20048;-64
2024/03/18 08:45:32;;;;;;;21.90;8.43;;;;;;;;;;5030658;28;20133;-64
2024/03/18 08:47:59;;;;;;;21.63;8.57;;;;;;;;;;5037627;28;20142;-64
2024/03/18 08:50:26;;;;;;;21.92;8.73;;;;;;;;;;5042858;28;20213;-64
2024/03/18 08:52:54;;;;;;;21.02;8.15;;;;;;;;;;5043612;28;20084;-65
2024/03/18 08:55:21;;;;;;;17.92;6.93;;;;;;;;;;5042353;28;20052;-65
2024/03/18 08:57:59;;;;;;;19.30;7.80;;;;;;;;;;5056396;28;20087;-64
2024/03/18 09:00:26;;;;;;;22.13;8.45;;;;;;;;;;5042739;28;20072;-65
2024/03/18 09:02:53;;;;;;;21.42;8.50;;;;;;;;;;5045968;28;20148;-64
2024/03/18 09:05:20;;;;;;;23.23;8.40;;;;;;;;;;5023958;28;20088;-65
2024/03/18 09:07:47;;;;;;;17.42;7.53;;;;;;;;;;5041571;28;20144;-64
2024/03/18 09:10:14;;;;;;;23.73;8.52;;;;;;;;;;5038571;28;20057;-64
2024/03/18 09:12:42;;;;;;;24.08;9.90;;;;;;;;;;5042603;28;20063;-65
2024/03/18 09:15:11;;;;;;;30.80;10.88;;;;;;;;;;5030385;28;20051;-65
2024/03/18 09:17:38;;;;;;;48.53;18.77;;;;;;;;;;5047448;28;20048;-65
2024/03/18 09:20:06;;;;;;;22.48;9.93;;;;;;;;;;5038231;28;20256;-64
2024/03/18 09:22:33;;;;;;;37.03;13.25;;;;;;;;;;5040241;28;20117;-65
2024/03/18 09:25:06;;;;;;;27.42;9.07;;;;;;;;;;5035495;28;20083;-65
2024/03/18 09:27:36;;;;;;;24.10;8.85;;;;;;;;;;5042191;28;20056;-65
2024/03/18 09:30:06;;;;;;;27.38;8.13;;;;;;;;;;5033432;28;20057;-64
2024/03/18 09:32:34;;;;;;;20.30;8.13;;;;;;;;;;5044665;28;20048;-65
2024/03/18 09:35:01;;;;;;;16.35;7.72;;;;;;;;;;5028391;28;20047;-67
2024/03/18 09:37:29;;;;;;;19.13;7.68;;;;;;;;;;5041639;28;20060;-65
2024/03/18 09:39:56;;;;;;;23.15;8.63;;;;;;;;;;5037162;28;20052;-65
2024/03/18 09:42:23;;;;;;;18.92;7.70;;;;;;;;;;5041244;28;20101;-65
2024/03/18 09:44:50;;;;;;;24.73;8.32;;;;;;;;;;5010646;28;20053;-65
2024/03/18 09:47:21;;;;;;;18.98;7.50;;;;;;;;;;5040583;28;20056;-66
2024/03/18 09:49:51;;;;;;;21.13;8.20;;;;;;;;;;5038581;28;20060;-66
2024/03/18 09:52:19;;;;;;;26.77;8.27;;;;;;;;;;5038725;28;20163;-66
2024/03/18 09:54:47;;;;;;;24.05;8.35;;;;;;;;;;5020021;28;20064;-67
2024/03/18 09:57:17;;;;;;;16.88;7.10;;;;;;;;;;5039525;28;20178;-67
2024/03/18 09:59:44;;;;;;;24.58;8.15;;;;;;;;;;5040262;28;20063;-67
2024/03/18 10:02:16;;;;;;;20.73;8.30;;;;;;;;;;5039403;28;21256;-67
2024/03/18 10:04:42;;;;;;;17.77;7.20;;;;;;;;;;5036028;28;20068;-68
2024/03/18 10:07:16;;;;;;;24.67;10.32;;;;;;;;;;5055356;28;20056;-67
2024/03/18 10:09:46;;;;;;;24.90;11.27;;;;;;;;;;5040367;28;20060;-66
2024/03/18 10:12:14;;;;;;;23.83;10.82;;;;;;;;;;5038847;28;20616;-65
2024/03/18 10:14:41;;;;;;;;;;;;;;;;;;5028358;28;20061;-67
2024/03/18 10:17:18;;;;;;;22.83;8.00;;;;;;;;;;5038835;28;20020;-67
2024/03/18 10:19:49;;;;;;;24.30;8.43;;;;;;;;;;5039583;28;20061;-66
2024/03/18 10:22:22;;;;;;;24.73;8.93;;;;;;;;;;5040134;28;20057;-65
2024/03/18 10:24:55;;;;;;;21.55;7.85;;;;;;;;;;5039245;28;20053;-66
2024/03/18 10:27:24;;;;;;;16.48;6.97;;;;;;;;;;5041119;28;20188;-64
2024/03/18 10:29:53;;;;;;;19.63;7.97;;;;;;;;;;5033384;28;20057;-64
2024/03/18 10:32:26;;;;;;;21.10;8.13;;;;;;;;;;5040158;28;20107;-64
2024/03/18 10:34:56;;;;;;;23.80;8.90;;;;;;;;;;5015503;28;20052;-64
2024/03/18 10:37:27;;;;;;;22.48;9.07;;;;;;;;;;5038456;28;20056;-65
2024/03/18 10:40:05;;;;;;;24.38;8.88;;;;;;;;;;5038464;28;20083;-64
2024/03/18 10:42:34;;;;;;;24.15;9.73;;;;;;;;;;5041780;28;20080;-64
2024/03/18 10:45:11;;;;;;;25.17;10.02;;;;;;;;;;5018130;28;20060;-64
2024/03/18 10:47:38;;;;;;;29.20;12.65;;;;;;;;;;5041944;28;20049;-64
2024/03/18 10:50:13;;;;;;;37.35;10.52;;;;;;;;;;5048738;28;20063;-63
2024/03/18 10:52:42;;;;;;;31.80;11.38;;;;;;;;;;5041565;28;20060;-64
2024/03/18 10:58:34;;;;;;;28.05;8.25;;;;;;;;;;4895871;28;20038;-64
2024/03/18 11:01:02;;;;;;;20.30;7.88;;;;;;;;;;5000512;28;20068;-64
2024/03/18 11:03:29;;;;;;;20.67;7.20;;;;;;;;;;5023708;28;20061;-63
2024/03/18 11:05:57;;;;;;;25.15;7.95;;;;;;;;;;5025043;28;20131;-63
2024/03/18 11:08:30;;;;;;;22.60;7.78;;;;;;;;;;5041258;28;20156;-64
2024/03/18 11:10:59;;;;;;;27.98;7.05;;;;;;;;;;5040159;28;20044;-63
2024/03/18 11:13:36;;;;;;;19.10;7.18;;;;;;;;;;5041611;28;20088;-64
2024/03/18 11:16:06;;;;;;;25.80;8.13;;;;;;;;;;4991785;28;20139;-65
2024/03/18 11:18:35;;;;;;;21.13;7.30;;;;;;;;;;5045305;28;21065;-63
2024/03/18 11:21:03;;;;;;;31.52;9.35;;;;;;;;;;5041310;28;20090;-64
2024/03/18 11:23:32;;;;;;;22.38;7.80;;;;;;;;;;5041522;28;20064;-64
2024/03/18 11:26:14;;;;;;;21.35;6.78;;;;;;;;;;4979257;28;20163;-63
2024/03/18 11:28:47;;;;;;;26.35;7.32;;;;;;;;;;5038747;28;20063;-66
2024/03/18 11:31:16;;;;;;;18.50;6.75;;;;;;;;;;5041006;28;20061;-64
2024/03/18 11:33:45;;;;;;;26.30;7.93;;;;;;;;;;5036272;28;20109;-64
2024/03/18 11:36:17;;;;;;;17.98;7.03;;;;;;;;;;5025186;28;20060;-64
2024/03/18 11:38:47;;;;;;;22.75;6.85;;;;;;;;;;5038920;28;20059;-64
2024/03/18 11:41:14;;;;;;;30.65;7.82;;;;;;;;;;5039450;28;20045;-64
2024/03/18 11:43:50;;;;;;;24.50;7.85;;;;;;;;;;5040088;28;20514;-64
2024/03/18 11:46:17;;;;;;;32.47;11.52;;;;;;;;;;5023999;28;20056;-65
2024/03/18 11:48:47;;;;;;;17.52;7.20;;;;;;;;;;5038604;28;20067;-64
2024/03/18 11:51:16;;;;;;;21.63;6.53;;;;;;;;;;5041068;28;20064;-64
2024/03/18 11:53:58;;;;;;;17.00;5.32;;;;;;;;;;5052217;28;20061;-65
2024/03/18 11:56:25;;;;;;;19.45;5.53;;;;;;;;;;5034814;28;20355;-64
2024/03/18 11:58:58;;;;;;;16.27;5.88;;;;;;;;;;5038997;28;20060;-64
2024/03/18 12:01:28;;;;;;;13.73;5.05;;;;;;;;;;5039650;28;20068;-64
2024/03/18 12:03:54;;;;;;;21.02;4.55;;;;;;;;;;5032626;28;20073;-64
2024/03/18 12:06:23;;;;;;;12.25;4.72;;;;;;;;;;5014703;28;20059;-64
2024/03/18 12:08:51;;;;;;;22.40;5.47;;;;;;;;;;5038955;28;20060;-63
2024/03/18 12:11:18;;;;;;;;;;;;;;;;;;5058652;28;20139;-65
2024/03/18 12:13:47;;;;;;;13.48;4.72;;;;;;;;;;5041419;28;19920;-66
2024/03/18 12:16:16;;;;;;;9.93;4.25;;;;;;;;;;5026133;28;20281;-65
2024/03/18 12:18:43;;;;;;;15.65;4.32;;;;;;;;;;5046830;28;20052;-65
2024/03/18 12:21:10;;;;;;;19.08;3.58;;;;;;;;;;5042842;28;20147;-65
2024/03/18 12:29:19;;;;;;;9.25;3.00;;;;;;;;;;5044889;28;20101;-65
2024/03/18 12:31:49;;;;;;;14.73;3.30;;;;;;;;;;5041394;28;20115;-68
2024/03/18 12:34:18;;;;;;;12.85;3.20;;;;;;;;;;5032014;28;20052;-64
2024/03/18 12:36:47;;;;;;;11.80;2.45;;;;;;;;;;5039870;28;20209;-64
2024/03/18 12:39:18;;;;;;;12.57;2.30;;;;;;;;;;5043603;28;20067;-65
2024/03/18 12:41:49;;;;;;;10.48;2.00;;;;;;;;;;5037018;28;20061;-64
2024/03/18 12:44:16;;;;;;;8.07;2.67;;;;;;;;;;5032725;28;20130;-66
2024/03/18 12:46:43;;;;;;;16.33;5.25;;;;;;;;;;5026185;28;20596;-65
2024/03/18 12:49:11;;;;;;;27.35;13.55;;;;;;;;;;5059106;28;20068;-65
2024/03/18 12:51:38;;;;;;;10.65;3.28;;;;;;;;;;5045015;28;20064;-64
2024/03/18 12:54:07;;;;;;;10.20;2.50;;;;;;;;;;5038101;28;20131;-64
2024/03/18 12:56:36;;;;;;;7.38;1.90;;;;;;;;;;5028808;28;20069;-64
2024/03/18 12:59:05;;;;;;;12.55;2.08;;;;;;;;;;5058168;28;20057;-65
2024/03/18 13:01:32;;;;;;;10.48;2.17;;;;;;;;;;5040655;28;20054;-65
2024/03/18 13:03:58;;;;;;;9.80;1.52;;;;;;;;;;5036932;28;20052;-65
2024/03/18 13:06:25;;;;;;;11.02;1.95;;;;;;;;;;5037945;28;20073;-63
2024/03/18 13:08:52;;;;;;;7.07;1.25;;;;;;;;;;5042249;28;20169;-64
2024/03/18 13:11:19;;;;;;;8.60;1.20;;;;;;;;;;5045306;28;20053;-65
2024/03/18 13:13:46;;;;;;;11.32;1.35;;;;;;;;;;5040018;28;20053;-64
2024/03/18 13:16:14;;;;;;;5.80;1.20;;;;;;;;;;5027178;28;20063;-65
2024/03/18 13:18:43;;;;;;;7.45;1.10;;;;;;;;;;5042777;28;20060;-64
2024/03/18 13:21:13;;;;;;;8.57;1.52;;;;;;;;;;5042132;28;20135;-65
2024/03/18 13:23:40;;;;;;;7.47;2.92;;;;;;;;;;5043236;28;20053;-64
2024/03/18 13:26:10;;;;;;;16.83;5.97;;;;;;;;;;5025431;28;20555;-64
2024/03/18 13:28:37;;;;;;;3.90;1.17;;;;;;;;;;5044058;28;20138;-63
2024/03/18 13:31:07;;;;;;;1.92;0.77;;;;;;;;;;5040559;28;20143;-65
2024/03/18 13:33:36;;;;;;;6.10;1.00;;;;;;;;;;5044226;28;20074;-66
2024/03/18 13:36:05;;;;;;;1.77;0.85;;;;;;;;;;5005488;28;20076;-64
2024/03/18 13:38:31;;;;;;;7.10;0.88;;;;;;;;;;5038980;28;20067;-64
2024/03/18 13:41:00;;;;;;;3.35;1.08;;;;;;;;;;5044234;28;20057;-65
2024/03/18 13:43:26;;;;;;;2.45;0.73;;;;;;;;;;5044021;28;20254;-65
2024/03/18 13:45:54;;;;;;;5.03;0.68;;;;;;;;;;5024883;28;20057;-65
2024/03/18 13:48:22;;;;;;;4.20;0.70;;;;;;;;;;5044393;28;20140;-65
2024/03/18 13:50:51;;;;;;;5.07;0.87;;;;;;;;;;5043422;28;20076;-65
2024/03/18 13:53:18;;;;;;;;;;;;;;;;;;5044049;28;20049;-65
2024/03/18 13:55:48;;;;;;;8.10;1.33;;;;;;;;;;5019639;28;19931;-65
2024/03/18 13:58:15;;;;;;;3.20;0.95;;;;;;;;;;5038545;28;20056;-65
2024/03/18 14:00:44;;;;;;;5.88;0.90;;;;;;;;;;5043255;28;20144;-66
2024/03/18 14:03:11;;;;;;;4.05;0.70;;;;;;;;;;5042099;28;20193;-65
2024/03/18 14:05:37;;;;;;;3.30;0.90;;;;;;;;;;5036220;28;20167;-64
2024/03/18 14:08:06;;;;;;;5.05;1.13;;;;;;;;;;5037601;28;20086;-66
2024/03/18 14:10:33;;;;;;;12.52;1.08;;;;;;;;;;5040414;28;20052;-65
2024/03/18 14:12:59;;;;;;;5.38;1.08;;;;;;;;;;5041917;28;20057;-65
2024/03/18 14:15:26;;;;;;;5.53;0.88;;;;;;;;;;5027772;28;20060;-66
2024/03/18 14:17:53;;;;;;;5.55;1.15;;;;;;;;;;5036003;28;20053;-66
2024/03/18 14:20:20;;;;;;;6.55;0.90;;;;;;;;;;5043279;28;20126;-65
2024/03/18 14:22:48;;;;;;;4.95;1.10;;;;;;;;;;5040093;28;20065;-66
2024/03/18 14:25:20;;;;;;;6.47;1.40;;;;;;;;;;5027832;28;20166;-66
2024/03/18 14:27:54;;;;;;;4.25;0.90;;;;;;;;;;5037127;28;20303;-66
2024/03/18 14:30:22;;;;;;;5.50;0.93;;;;;;;;;;5039903;28;20059;-66
2024/03/18 14:32:49;;;;;;;9.43;1.10;;;;;;;;;;5041472;28;20076;-66
2024/03/18 14:35:18;;;;;;;6.18;1.00;;;;;;;;;;5014960;28;20106;-66
2024/03/18 14:37:49;;;;;;;5.35;1.27;;;;;;;;;;5038037;28;20064;-66
2024/03/18 14:40:26;;;;;;;10.93;1.27;;;;;;;;;;5042989;28;20060;-65
2024/03/18 14:42:54;;;;;;;9.27;1.38;;;;;;;;;;5042102;28;20052;-66
2024/03/18 14:45:31;;;;;;;5.00;1.00;;;;;;;;;;5043363;28;20056;-66
2024/03/18 14:48:11;;;;;;;4.65;0.75;;;;;;;;;;5036851;28;20052;-65
2024/03/18 14:50:42;;;;;;;3.58;0.82;;;;;;;;;;5041768;28;20553;-65
2024/03/18 14:53:11;;;;;;;3.97;0.77;;;;;;;;;;5043520;28;20057;-66
2024/03/18 14:55:42;;;;;;;3.60;0.95;;;;;;;;;;5024122;28;20059;-65